createdAt,value
2023-04-30T00:03:04.634Z,13.18
2023-04-30T00:08:40.356Z,13.05
2023-04-30T00:14:11.963Z,13.14
2023-04-30T00:19:43.848Z,13.11
2023-04-30T00:25:15.380Z,13.04
2023-04-30T00:30:47.271Z,13.03
2023-04-30T00:36:18.809Z,12.99
2023-04-30T00:41:50.705Z,12.94
2023-04-30T00:47:22.296Z,12.86
2023-04-30T00:52:54.166Z,12.91
2023-04-30T00:58:26.125Z,12.91
2023-04-30T01:04:03.075Z,12.92
2023-04-30T01:09:33.849Z,12.93
2023-04-30T01:15:05.295Z,12.96
2023-04-30T01:20:37.490Z,12.95
2023-04-30T01:26:08.976Z,12.9
2023-04-30T01:31:40.517Z,12.88
2023-04-30T01:37:12.717Z,12.78
2023-04-30T01:42:44.109Z,12.76
2023-04-30T01:48:15.866Z,12.67
2023-04-30T01:53:47.394Z,12.68
2023-04-30T01:59:19.098Z,12.72
2023-04-30T02:04:50.928Z,12.74
2023-04-30T02:10:26.968Z,12.74
2023-04-30T02:15:58.758Z,12.56
2023-04-30T02:21:30.445Z,12.53
2023-04-30T02:27:02.438Z,12.54
2023-04-30T02:32:34.347Z,12.52
2023-04-30T02:38:05.620Z,12.21
2023-04-30T02:43:37.599Z,12.03
2023-04-30T02:49:09.036Z,12.18
2023-04-30T02:54:40.996Z,11.87
2023-04-30T03:00:13.011Z,12.18
2023-04-30T03:05:44.189Z,11.9
2023-04-30T03:11:22.681Z,12.2
2023-04-30T03:16:54.034Z,12.1
2023-04-30T03:22:26.144Z,12.07
2023-04-30T03:27:57.753Z,12.14
2023-04-30T03:33:29.444Z,12.07
2023-04-30T03:39:01.122Z,11.93
2023-04-30T03:44:32.811Z,11.9
2023-04-30T03:50:04.592Z,11.94
2023-04-30T03:55:36.428Z,11.9
2023-04-30T04:01:08.050Z,11.82
2023-04-30T04:06:39.983Z,11.76
2023-04-30T04:12:15.669Z,12.01
2023-04-30T04:17:47.427Z,12.1
2023-04-30T04:23:19.393Z,12.18
2023-04-30T04:28:51.105Z,12.16
2023-04-30T04:34:22.569Z,12.21
2023-04-30T04:39:55.094Z,12.12
2023-04-30T04:45:26.037Z,12.15
2023-04-30T04:50:58.040Z,12.11
2023-04-30T04:56:29.413Z,11.88
2023-04-30T05:02:02.053Z,12.01
2023-04-30T05:07:32.928Z,12.15
2023-04-30T05:13:09.027Z,11.93
2023-04-30T05:18:40.687Z,12.0
2023-04-30T05:24:12.856Z,12.18
2023-04-30T05:29:44.406Z,12.16
2023-04-30T05:35:15.919Z,12.04
2023-04-30T05:40:47.987Z,12.19
2023-04-30T05:46:19.422Z,12.19
2023-04-30T05:51:51.420Z,12.14
2023-04-30T05:57:22.806Z,12.16
2023-04-30T06:02:54.880Z,12.22
2023-04-30T06:08:26.548Z,12.5
2023-04-30T06:14:03.724Z,12.55
2023-04-30T06:19:34.156Z,12.55
2023-04-30T06:25:06.166Z,12.66
2023-04-30T06:30:37.566Z,12.67
2023-04-30T06:36:09.616Z,12.93
2023-04-30T06:41:41.004Z,13.09
2023-04-30T06:47:13.119Z,13.21
2023-04-30T06:52:44.746Z,13.35
2023-04-30T06:58:16.449Z,13.24
2023-04-30T07:03:48.302Z,13.32
2023-04-30T07:09:19.673Z,13.61
2023-04-30T07:14:56.600Z,13.97
2023-04-30T07:20:27.806Z,14.18
2023-04-30T07:25:59.294Z,14.47
2023-04-30T07:31:31.064Z,14.64
2023-04-30T07:37:02.738Z,14.67
2023-04-30T07:42:34.731Z,14.68
2023-04-30T07:48:06.247Z,15.45
2023-04-30T07:53:37.937Z,15.76
2023-04-30T07:59:09.660Z,15.76
2023-04-30T08:04:41.396Z,16.15
2023-04-30T08:10:13.439Z,15.86
2023-04-30T08:15:51.462Z,15.68
2023-04-30T08:21:22.901Z,16.26
2023-04-30T08:26:54.882Z,16.57
2023-04-30T08:32:27.140Z,16.14
2023-04-30T08:37:58.144Z,16.77
2023-04-30T08:43:29.807Z,16.71
2023-04-30T08:49:03.914Z,16.33
2023-04-30T08:54:33.255Z,16.12
2023-04-30T09:00:05.027Z,16.32
2023-04-30T09:05:36.697Z,16.11
2023-04-30T09:11:08.414Z,15.92
2023-04-30T09:16:46.544Z,15.6
2023-04-30T09:22:18.464Z,15.7
2023-04-30T09:27:50.185Z,16.09
2023-04-30T09:33:22.123Z,16.09
2023-04-30T09:38:53.421Z,16.18
2023-04-30T09:44:25.176Z,16.38
2023-04-30T09:49:57.231Z,16.37
2023-04-30T09:55:29.424Z,16.22
2023-04-30T10:01:00.343Z,16.07
2023-04-30T10:06:32.365Z,16.19
2023-04-30T10:12:03.789Z,16.09
2023-04-30T10:17:39.909Z,16.56
2023-04-30T10:23:11.832Z,16.39
2023-04-30T10:28:43.680Z,16.45
2023-04-30T10:34:15.054Z,16.31
2023-04-30T10:39:47.562Z,16.42
2023-04-30T10:45:18.480Z,16.6
2023-04-30T10:50:50.237Z,17.0
2023-04-30T10:56:21.900Z,16.74
2023-04-30T11:01:53.658Z,16.5
2023-04-30T11:07:25.364Z,16.68
2023-04-30T11:12:57.091Z,16.72
2023-04-30T11:18:33.153Z,16.9
2023-04-30T11:24:05.177Z,17.06
2023-04-30T11:29:36.642Z,17.1
2023-04-30T11:35:08.675Z,17.05
2023-04-30T11:40:40.821Z,17.56
2023-04-30T11:46:12.172Z,17.31
2023-04-30T11:51:43.762Z,17.5
2023-04-30T11:57:15.432Z,17.21
2023-04-30T12:02:47.332Z,17.19
2023-04-30T12:08:19.069Z,17.54
2023-04-30T12:13:50.469Z,17.27
2023-04-30T12:19:26.536Z,17.27
2023-04-30T12:24:58.599Z,17.11
2023-04-30T12:30:30.914Z,17.23
2023-04-30T12:36:01.721Z,17.22
2023-04-30T12:41:33.785Z,17.29
2023-04-30T12:47:05.440Z,17.38
2023-04-30T12:52:37.348Z,17.43
2023-04-30T12:58:08.843Z,17.42
2023-04-30T13:03:40.421Z,17.39
2023-04-30T13:09:12.366Z,17.49
2023-04-30T13:14:44.033Z,17.43
2023-04-30T13:20:20.778Z,17.4
2023-04-30T13:25:51.623Z,17.49
2023-04-30T13:31:23.719Z,17.48
2023-04-30T13:36:55.299Z,17.64
2023-04-30T13:42:27.276Z,17.75
2023-04-30T13:47:58.773Z,17.74
2023-04-30T13:53:30.180Z,18.04
2023-04-30T13:59:02.145Z,18.32
2023-04-30T14:04:33.931Z,18.23
2023-04-30T14:10:05.672Z,18.12
2023-04-30T14:15:37.319Z,17.79
2023-04-30T14:21:13.454Z,17.95
2023-04-30T14:26:44.985Z,17.92
2023-04-30T14:32:16.993Z,17.66
2023-04-30T14:37:48.699Z,17.83
2023-04-30T14:43:20.114Z,17.85
2023-04-30T14:48:51.869Z,18.0
2023-04-30T14:54:24.018Z,17.92
2023-04-30T14:59:55.573Z,17.99
2023-04-30T15:05:27.777Z,17.98
2023-04-30T15:10:58.886Z,17.89
2023-04-30T15:16:30.621Z,18.11
2023-04-30T15:22:06.721Z,18.01
2023-04-30T15:27:38.409Z,18.19
2023-04-30T15:33:10.660Z,18.14
2023-04-30T15:38:42.310Z,18.01
2023-04-30T15:44:13.668Z,18.03
2023-04-30T15:49:45.373Z,18.13
2023-04-30T15:55:17.333Z,18.12
2023-04-30T16:00:48.799Z,18.23
2023-04-30T16:06:20.508Z,18.18
2023-04-30T16:11:52.548Z,17.99
2023-04-30T16:17:24.360Z,17.89
2023-04-30T16:23:02.674Z,18.1
2023-04-30T16:28:34.099Z,17.81
2023-04-30T16:34:05.563Z,17.94
2023-04-30T16:39:37.302Z,17.79
2023-04-30T16:45:09.717Z,17.77
2023-04-30T16:50:41.102Z,17.59
2023-04-30T16:56:12.437Z,17.58
2023-04-30T17:01:44.636Z,17.6
2023-04-30T17:07:16.736Z,17.7
2023-04-30T17:12:47.584Z,17.52
2023-04-30T17:18:19.389Z,17.64
2023-04-30T17:23:55.417Z,17.53
2023-04-30T17:29:27.466Z,17.68
2023-04-30T17:34:59.171Z,17.53
2023-04-30T17:40:30.777Z,17.26
2023-04-30T17:46:02.385Z,17.33
2023-04-30T17:51:34.329Z,17.08
2023-04-30T17:57:05.793Z,17.05
2023-04-30T18:02:37.485Z,17.02
2023-04-30T18:08:09.237Z,16.85
2023-04-30T18:13:40.946Z,16.95
2023-04-30T18:19:12.653Z,16.71
2023-04-30T18:24:48.937Z,16.64
2023-04-30T18:30:21.372Z,16.44
2023-04-30T18:35:52.458Z,16.27
2023-04-30T18:41:23.953Z,16.11
2023-04-30T18:46:55.955Z,15.99
2023-04-30T18:52:27.393Z,15.82
2023-04-30T18:57:59.176Z,15.75
2023-04-30T19:03:31.224Z,15.68
2023-04-30T19:09:02.635Z,15.62
2023-04-30T19:14:34.477Z,15.54
2023-04-30T19:20:06.307Z,15.48
2023-04-30T19:25:42.356Z,15.42
2023-04-30T19:31:14.114Z,15.35
2023-04-30T19:36:45.593Z,15.29
2023-04-30T19:42:17.521Z,15.21
2023-04-30T19:47:49.332Z,15.15
2023-04-30T19:53:20.988Z,15.13
2023-04-30T19:58:52.433Z,15.07
2023-04-30T20:04:24.228Z,15.03
2023-04-30T20:09:56.166Z,14.95
2023-04-30T20:15:27.697Z,14.87
2023-04-30T20:20:59.633Z,14.79
2023-04-30T20:26:35.515Z,14.72
2023-04-30T20:32:07.291Z,14.62
2023-04-30T20:37:38.930Z,14.49
2023-04-30T20:43:10.885Z,14.36
2023-04-30T20:48:42.370Z,14.27
2023-04-30T20:54:14.384Z,14.28
2023-04-30T20:59:45.838Z,14.23
2023-04-30T21:05:17.842Z,14.2
2023-04-30T21:10:49.565Z,14.16
2023-04-30T21:16:21.045Z,14.07
2023-04-30T21:21:52.717Z,14.0
2023-04-30T21:27:28.868Z,13.94
2023-04-30T21:33:00.711Z,13.91
2023-04-30T21:38:32.477Z,13.78
2023-04-30T21:44:03.961Z,13.66
2023-04-30T21:49:35.690Z,13.61
2023-04-30T21:55:07.759Z,13.45
2023-04-30T22:00:39.121Z,13.35
2023-04-30T22:06:11.039Z,13.24
2023-04-30T22:11:42.602Z,13.28
2023-04-30T22:17:14.755Z,13.28
2023-04-30T22:22:46.417Z,13.17
2023-04-30T22:28:22.165Z,13.09
2023-04-30T22:33:54.120Z,13.18
2023-04-30T22:39:26.448Z,13.18
2023-04-30T22:44:57.323Z,13.16
2023-04-30T22:50:29.477Z,13.14
2023-04-30T22:56:01.095Z,13.06
2023-04-30T23:01:32.864Z,12.95
2023-04-30T23:07:04.224Z,12.9
2023-04-30T23:12:36.190Z,12.92
2023-04-30T23:18:07.943Z,12.92
2023-04-30T23:23:39.577Z,12.84
2023-04-30T23:29:17.789Z,12.78
2023-04-30T23:34:49.486Z,12.69
2023-04-30T23:40:21.213Z,12.6
2023-04-30T23:45:52.671Z,12.51
2023-04-30T23:51:24.472Z,12.47
2023-04-30T23:56:56.705Z,12.36
